Time,TemperatureF,DewpointF,PressureIn,WindDirection,WindDirectionDegrees,WindSpeedMPH,WindSpeedGustMPH,Humidity,HourlyPrecipIn,Conditions,Clouds,dailyrainin,SoftwareType,DateUTC
2013-03-21 00:04:00,33.1,28.2,30.02,SW,236,0.0,0.0,82,0.00,,,0.00,Wunderground v.1.15,2013-03-21 06:04:00,
2013-03-21 00:09:00,33.0,28.4,30.02,SW,236,0.0,0.0,83,0.00,,,0.00,Wunderground v.1.15,2013-03-21 06:09:00,
2013-03-21 00:14:00,32.9,28.3,30.02,SW,236,0.0,0.0,83,0.00,,,0.00,Wunderground v.1.15,2013-03-21 06:14:00,
2013-03-21 00:24:00,32.7,28.4,30.01,SW,236,0.0,0.0,84,0.00,,,0.00,Wunderground v.1.15,2013-03-21 06:24:00,
2013-03-21 00:30:00,32.7,28.4,30.00,SW,236,0.0,0.0,84,0.00,,,0.00,Wunderground v.1.15,2013-03-21 06:30:00,
2013-03-21 00:34:00,32.6,28.3,30.00,SW,236,0.0,0.0,84,0.00,,,0.00,Wunderground v.1.15,2013-03-21 06:34:00,
2013-03-21 00:44:00,32.4,28.1,30.00,SW,236,0.0,0.0,84,0.00,,,0.00,Wunderground v.1.15,2013-03-21 06:44:00,
2013-03-21 00:54:00,32.3,28.0,29.99,SW,236,0.0,0.0,84,0.00,,,0.00,Wunderground v.1.15,2013-03-21 06:54:00,
2013-03-21 01:04:00,32.2,27.9,29.99,SW,236,0.0,0.0,84,0.00,,,0.00,Wunderground v.1.15,2013-03-21 07:04:00,
2013-03-21 01:14:00,32.0,27.7,29.99,SW,236,0.0,0.0,84,0.00,,,0.00,Wunderground v.1.15,2013-03-21 07:14:00,
2013-03-21 01:20:00,31.9,27.6,29.98,SW,236,0.0,0.0,84,0.00,,,0.00,Wunderground v.1.15,2013-03-21 07:20:00,
2013-03-21 01:29:00,31.7,27.7,29.98,SW,236,0.0,0.0,85,0.00,,,0.00,Wunderground v.1.15,2013-03-21 07:29:00,
2013-03-21 01:35:00,31.7,27.7,29.98,SW,236,0.0,0.0,85,0.00,,,0.00,Wunderground v.1.15,2013-03-21 07:35:00,
2013-03-21 01:44:00,31.5,27.5,29.98,SW,236,0.0,0.0,85,0.00,,,0.00,Wunderground v.1.15,2013-03-21 07:44:00,
2013-03-21 01:54:00,31.5,27.5,29.97,SW,236,0.0,0.0,85,0.00,,,0.00,Wunderground v.1.15,2013-03-21 07:54:00,
2013-03-21 02:04:00,31.4,27.4,29.97,SW,236,0.0,0.0,85,0.00,,,0.00,Wunderground v.1.15,2013-03-21 08:04:00,
2013-03-21 02:14:00,31.2,27.2,29.97,SW,236,0.0,0.0,85,0.00,,,0.00,Wunderground v.1.15,2013-03-21 08:14:00,
2013-03-21 02:25:00,31.1,27.4,29.97,SW,236,0.0,0.0,86,0.00,,,0.00,Wunderground v.1.15,2013-03-21 08:25:00,
2013-03-21 02:34:00,31.0,27.3,29.96,SW,236,0.0,0.0,86,0.00,,,0.00,Wunderground v.1.15,2013-03-21 08:34:00,
2013-03-21 02:44:00,30.9,27.2,29.96,SW,236,0.0,0.0,86,0.00,,,0.00,Wunderground v.1.15,2013-03-21 08:44:00,
2013-03-21 02:54:00,30.7,27.3,29.96,SW,236,0.0,0.0,87,0.00,,,0.00,Wunderground v.1.15,2013-03-21 08:54:00,
2013-03-21 02:59:00,30.7,27.0,29.95,SW,236,0.0,0.0,86,0.00,,,0.00,Wunderground v.1.15,2013-03-21 08:59:00,
2013-03-21 03:04:00,30.7,27.0,29.95,SW,236,0.0,0.0,86,0.00,,,0.00,Wunderground v.1.15,2013-03-21 09:04:00,
2013-03-21 03:15:00,30.7,27.3,29.94,SW,236,0.0,0.0,87,0.00,,,0.00,Wunderground v.1.15,2013-03-21 09:15:00,
2013-03-21 03:24:00,30.6,26.9,29.93,SW,236,0.0,0.0,86,0.00,,,0.00,Wunderground v.1.15,2013-03-21 09:24:00,
2013-03-21 03:34:00,30.6,27.2,29.93,SW,236,0.0,0.0,87,0.00,,,0.00,Wunderground v.1.15,2013-03-21 09:34:00,
2013-03-21 03:44:00,30.4,27.0,29.92,SW,236,0.0,0.0,87,0.00,,,0.00,Wunderground v.1.15,2013-03-21 09:44:00,
2013-03-21 03:49:00,30.3,26.9,29.92,SW,236,0.0,0.0,87,0.00,,,0.00,Wunderground v.1.15,2013-03-21 09:49:00,
2013-03-21 03:59:00,30.1,26.4,29.92,SW,236,0.0,0.0,86,0.00,,,0.00,Wunderground v.1.15,2013-03-21 09:59:00,
2013-03-21 04:10:00,29.8,26.4,29.91,SW,236,0.0,0.0,87,0.00,,,0.00,Wunderground v.1.15,2013-03-21 10:10:00,
2013-03-21 04:15:00,29.8,26.4,29.91,SW,236,0.0,1.0,87,0.00,,,0.00,Wunderground v.1.15,2013-03-21 10:15:00,
2013-03-21 04:24:00,29.7,26.6,29.91,SW,236,0.0,0.0,88,0.00,,,0.00,Wunderground v.1.15,2013-03-21 10:24:00,
2013-03-21 04:29:00,29.8,26.7,29.90,SW,236,0.0,0.0,88,0.00,,,0.00,Wunderground v.1.15,2013-03-21 10:29:00,
2013-03-21 04:39:00,29.8,26.7,29.90,SW,236,0.0,0.0,88,0.00,,,0.00,Wunderground v.1.15,2013-03-21 10:39:00,
2013-03-21 04:49:00,30.1,27.3,29.90,SW,236,0.0,0.0,89,0.00,,,0.00,Wunderground v.1.15,2013-03-21 10:49:00,
2013-03-21 05:00:00,30.2,27.1,29.89,SW,236,0.0,0.0,88,0.00,,,0.00,Wunderground v.1.15,2013-03-21 11:00:00,
2013-03-21 05:05:00,30.2,27.1,29.88,SW,236,0.0,0.0,88,0.00,,,0.00,Wunderground v.1.15,2013-03-21 11:05:00,
2013-03-21 05:15:00,30.2,27.1,29.88,SW,236,0.0,2.0,88,0.00,,,0.00,Wunderground v.1.15,2013-03-21 11:15:00,
2013-03-21 05:24:00,30.1,26.7,29.88,SW,236,0.0,2.0,87,0.00,,,0.00,Wunderground v.1.15,2013-03-21 11:24:00,
2013-03-21 05:34:00,30.0,26.6,29.88,SW,236,0.0,2.0,87,0.00,,,0.00,Wunderground v.1.15,2013-03-21 11:34:00,
2013-03-21 05:44:00,29.7,26.3,29.88,SW,236,0.0,2.0,87,0.00,,,0.00,Wunderground v.1.15,2013-03-21 11:44:00,
2013-03-21 05:54:00,29.5,26.4,29.88,SW,236,0.0,2.0,88,0.00,,,0.00,Wunderground v.1.15,2013-03-21 11:54:00,
2013-03-21 05:59:00,29.4,26.3,29.88,SW,236,0.0,2.0,88,0.00,,,0.00,Wunderground v.1.15,2013-03-21 11:59:00,
2013-03-21 06:04:00,29.3,26.2,29.88,SW,236,0.0,2.0,88,0.00,,,0.00,Wunderground v.1.15,2013-03-21 12:04:00,
2013-03-21 06:15:00,29.1,26.0,29.88,SW,236,0.0,2.0,88,0.00,,,0.00,Wunderground v.1.15,2013-03-21 12:15:00,
2013-03-21 06:24:00,29.1,26.3,29.88,SW,236,0.0,2.0,89,0.00,,,0.00,Wunderground v.1.15,2013-03-21 12:24:00,
2013-03-21 06:34:00,29.2,26.4,29.87,SW,236,0.0,2.0,89,0.00,,,0.00,Wunderground v.1.15,2013-03-21 12:34:00,
2013-03-21 06:39:00,29.4,26.8,29.87,SW,236,0.0,2.0,90,0.00,,,0.00,Wunderground v.1.15,2013-03-21 12:39:00,
2013-03-21 06:49:00,29.7,27.1,29.88,SW,236,0.0,2.0,90,0.00,,,0.00,Wunderground v.1.15,2013-03-21 12:49:00,
2013-03-21 07:00:00,29.7,26.9,29.88,SW,236,0.0,2.0,89,0.00,,,0.00,Wunderground v.1.15,2013-03-21 13:00:00,
2013-03-21 07:05:00,29.7,26.9,29.87,SW,236,0.0,2.0,89,0.00,,,0.00,Wunderground v.1.15,2013-03-21 13:05:00,
2013-03-21 07:10:00,29.7,27.1,29.87,SW,236,0.0,2.0,90,0.00,,,0.00,Wunderground v.1.15,2013-03-21 13:10:00,
2013-03-21 07:15:00,29.8,27.2,29.86,SW,236,0.0,2.0,90,0.00,,,0.00,Wunderground v.1.15,2013-03-21 13:15:00,
2013-03-21 07:24:00,29.8,27.2,29.86,SW,236,0.0,0.0,90,0.00,,,0.00,Wunderground v.1.15,2013-03-21 13:24:00,
2013-03-21 07:29:00,29.7,27.1,29.86,SW,236,0.0,0.0,90,0.00,,,0.00,Wunderground v.1.15,2013-03-21 13:29:00,
2013-03-21 07:34:00,29.7,27.1,29.86,SW,236,0.0,0.0,90,0.00,,,0.00,Wunderground v.1.15,2013-03-21 13:34:00,
2013-03-21 07:44:00,29.7,27.1,29.85,SW,236,0.0,0.0,90,0.00,,,0.00,Wunderground v.1.15,2013-03-21 13:44:00,
2013-03-21 07:54:00,29.7,27.1,29.86,SW,236,0.0,0.0,90,0.00,,,0.00,Wunderground v.1.15,2013-03-21 13:54:00,
2013-03-21 08:04:00,29.7,27.1,29.85,SW,236,0.0,0.0,90,0.00,,,0.00,Wunderground v.1.15,2013-03-21 14:04:00,
2013-03-21 08:10:00,29.7,27.1,29.84,SW,236,0.0,0.0,90,0.00,,,0.00,Wunderground v.1.15,2013-03-21 14:10:00,
2013-03-21 08:15:00,29.7,27.1,29.84,SW,236,0.0,0.0,90,0.00,,,0.00,Wunderground v.1.15,2013-03-21 14:15:00,
2013-03-21 08:24:00,29.8,27.5,29.84,SE,134,0.0,0.0,91,0.00,,,0.00,Wunderground v.1.15,2013-03-21 14:24:00,
2013-03-21 08:34:00,30.3,28.3,29.84,SE,134,0.0,0.0,92,0.00,,,0.00,Wunderground v.1.15,2013-03-21 14:34:00,
2013-03-21 08:44:00,31.0,28.9,29.84,SE,134,0.0,1.0,92,0.00,,,0.00,Wunderground v.1.15,2013-03-21 14:44:00,
2013-03-21 08:54:00,31.7,29.6,29.83,SE,138,0.0,1.0,92,0.00,,,0.00,Wunderground v.1.15,2013-03-21 14:54:00,
2013-03-21 08:59:00,32.5,30.4,29.83,SE,138,0.0,0.0,92,0.00,,,0.00,Wunderground v.1.15,2013-03-21 14:59:00,
2013-03-21 09:04:00,33.2,31.1,29.83,SE,138,0.0,0.0,92,0.00,,,0.00,Wunderground v.1.15,2013-03-21 15:04:00,
2013-03-21 09:09:00,34.0,31.1,29.83,SE,138,0.0,2.0,89,0.00,,,0.00,Wunderground v.1.15,2013-03-21 15:09:00,
2013-03-21 09:15:00,35.1,31.0,29.83,SE,141,1.0,2.0,85,0.00,,,0.00,Wunderground v.1.15,2013-03-21 15:15:00,
2013-03-21 09:24:00,35.8,31.1,29.82,SE,126,1.0,3.0,83,0.00,,,0.00,Wunderground v.1.15,2013-03-21 15:24:00,
2013-03-21 09:34:00,36.3,31.0,29.81,SE,126,0.0,2.0,81,0.00,,,0.00,Wunderground v.1.15,2013-03-21 15:34:00,
2013-03-21 09:39:00,36.8,30.9,29.82,SE,126,1.0,2.0,79,0.00,,,0.00,Wunderground v.1.15,2013-03-21 15:39:00,
2013-03-21 09:49:00,38.2,30.0,29.81,East,98,2.0,2.0,72,0.00,,,0.00,Wunderground v.1.15,2013-03-21 15:49:00,
2013-03-21 09:59:00,39.1,29.8,29.80,East,90,1.0,1.0,69,0.00,,,0.00,Wunderground v.1.15,2013-03-21 15:59:00,
2013-03-21 10:09:00,40.8,30.3,29.80,East,97,0.0,2.0,66,0.00,,,0.00,Wunderground v.1.15,2013-03-21 16:09:00,
2013-03-21 10:15:00,41.2,29.9,29.79,East,97,1.0,5.0,64,0.00,,,0.00,Wunderground v.1.15,2013-03-21 16:15:00,
2013-03-21 10:24:00,41.2,29.2,29.78,SW,236,1.0,5.0,62,0.00,,,0.00,Wunderground v.1.15,2013-03-21 16:24:00,
2013-03-21 10:34:00,42.2,29.7,29.77,SE,126,1.0,5.0,61,0.00,,,0.00,Wunderground v.1.15,2013-03-21 16:34:00,
2013-03-21 11:59:00,47.8,22.8,29.74,ESE,121,2.0,7.0,37,0.00,,,0.00,Wunderground v.1.15,2013-03-21 17:59:00,
2013-03-21 12:04:00,47.6,21.9,29.72,East,94,2.0,7.0,36,0.00,,,0.00,Wunderground v.1.15,2013-03-21 18:04:00,
2013-03-21 12:15:00,48.1,23.7,29.72,SE,144,1.0,10.0,38,0.00,,,0.00,Wunderground v.1.15,2013-03-21 18:15:00,
2013-03-21 12:24:00,47.5,24.9,29.71,South,182,1.0,10.0,41,0.00,,,0.00,Wunderground v.1.15,2013-03-21 18:24:00,
2013-03-21 12:29:00,46.9,23.8,29.72,East,88,1.0,1.0,40,0.00,,,0.00,Wunderground v.1.15,2013-03-21 18:29:00,
2013-03-21 12:39:00,46.9,23.2,29.72,SW,232,1.0,10.0,39,0.00,,,0.00,Wunderground v.1.15,2013-03-21 18:39:00,
2013-03-21 12:49:00,47.3,22.9,29.73,SW,229,2.0,10.0,38,0.00,,,0.00,Wunderground v.1.15,2013-03-21 18:49:00,
2013-03-21 12:55:00,47.5,21.8,29.74,WNW,282,2.0,10.0,36,0.00,,,0.00,Wunderground v.1.15,2013-03-21 18:55:00,
2013-03-21 13:04:00,46.7,24.2,29.73,East,100,2.0,10.0,41,0.00,,,0.00,Wunderground v.1.15,2013-03-21 19:04:00,
2013-03-21 13:15:00,47.2,22.9,29.72,WSW,246,2.0,10.0,38,0.00,,,0.00,Wunderground v.1.15,2013-03-21 19:15:00,
2013-03-21 13:24:00,46.6,23.5,29.73,ENE,61,3.0,4.0,40,0.00,,,0.00,Wunderground v.1.15,2013-03-21 19:24:00,
2013-03-21 13:29:00,45.8,22.8,29.73,West,271,2.0,2.0,40,0.00,,,0.00,Wunderground v.1.15,2013-03-21 19:29:00,
2013-03-21 13:39:00,44.8,24.2,29.74,SW,219,2.0,5.0,44,0.00,,,0.00,Wunderground v.1.15,2013-03-21 19:39:00,
2013-03-21 13:45:00,45.1,25.5,29.74,NW,304,2.0,5.0,46,0.00,,,0.00,Wunderground v.1.15,2013-03-21 19:45:00,
2013-03-21 13:54:00,46.2,23.2,29.74,ESE,103,1.0,5.0,40,0.00,,,0.00,Wunderground v.1.15,2013-03-21 19:54:00,
2013-03-21 13:59:00,46.5,24.0,29.73,SE,132,1.0,5.0,41,0.00,,,0.00,Wunderground v.1.15,2013-03-21 19:59:00,
2013-03-21 14:09:00,47.5,21.2,29.73,East,94,2.0,5.0,35,0.00,,,0.00,Wunderground v.1.15,2013-03-21 20:09:00,
2013-03-21 14:15:00,47.8,18.6,29.73,SW,231,3.0,6.0,31,0.00,,,0.00,Wunderground v.1.15,2013-03-21 20:15:00,
2013-03-21 14:24:00,48.1,20.3,29.73,SW,226,2.0,5.0,33,0.00,,,0.00,Wunderground v.1.15,2013-03-21 20:24:00,
2013-03-21 14:29:00,48.1,18.8,29.73,East,95,2.0,5.0,31,0.00,,,0.00,Wunderground v.1.15,2013-03-21 20:29:00,
2013-03-21 14:39:00,47.9,17.9,29.73,WSW,242,2.0,5.0,30,0.00,,,0.00,Wunderground v.1.15,2013-03-21 20:39:00,
2013-03-21 14:44:00,47.6,18.4,29.72,SW,229,2.0,5.0,31,0.00,,,0.00,Wunderground v.1.15,2013-03-21 20:44:00,
2013-03-21 14:49:00,47.4,18.2,29.72,SW,235,2.0,5.0,31,0.00,,,0.00,Wunderground v.1.15,2013-03-21 20:49:00,
2013-03-21 14:54:00,47.4,18.2,29.71,WSW,244,2.0,5.0,31,0.00,,,0.00,Wunderground v.1.15,2013-03-21 20:54:00,
2013-03-21 15:04:00,47.0,17.9,29.72,WSW,244,2.0,5.0,31,0.00,,,0.00,Wunderground v.1.15,2013-03-21 21:04:00,
2013-03-21 15:15:00,47.2,16.5,29.72,SW,234,2.0,3.0,29,0.00,,,0.00,Wunderground v.1.15,2013-03-21 21:15:00,
2013-03-21 15:24:00,47.3,18.1,29.72,South,176,2.0,7.0,31,0.00,,,0.00,Wunderground v.1.15,2013-03-21 21:24:00,
2013-03-21 15:34:00,47.7,16.1,29.71,SW,225,2.0,6.0,28,0.00,,,0.00,Wunderground v.1.15,2013-03-21 21:34:00,
2013-03-21 15:39:00,47.5,14.3,29.72,WSW,237,3.0,3.0,26,0.00,,,0.00,Wunderground v.1.15,2013-03-21 21:39:00,
2013-03-21 15:44:00,47.3,15.8,29.72,SSW,199,3.0,7.0,28,0.00,,,0.00,Wunderground v.1.15,2013-03-21 21:44:00,
2013-03-21 15:49:00,47.4,15.9,29.72,SSW,209,3.0,7.0,28,0.00,,,0.00,Wunderground v.1.15,2013-03-21 21:49:00,
2013-03-21 15:59:00,47.6,16.1,29.72,WNW,288,2.0,7.0,28,0.00,,,0.00,Wunderground v.1.15,2013-03-21 21:59:00,
2013-03-21 16:09:00,47.2,14.9,29.72,South,185,1.0,7.0,27,0.00,,,0.00,Wunderground v.1.15,2013-03-21 22:09:00,
2013-03-21 16:15:00,47.1,16.4,29.73,North,11,1.0,7.0,29,0.00,,,0.00,Wunderground v.1.15,2013-03-21 22:15:00,
2013-03-21 16:24:00,46.7,16.9,29.73,SW,229,3.0,6.0,30,0.00,,,0.00,Wunderground v.1.15,2013-03-21 22:24:00,
2013-03-21 16:35:00,46.5,14.3,29.73,WSW,238,3.0,5.0,27,0.00,,,0.00,Wunderground v.1.15,2013-03-21 22:35:00,
2013-03-21 16:44:00,46.5,15.9,29.74,WSW,246,2.0,5.0,29,0.00,,,0.00,Wunderground v.1.15,2013-03-21 22:44:00,
2013-03-21 16:54:00,46.7,16.1,29.75,East,86,2.0,5.0,29,0.00,,,0.00,Wunderground v.1.15,2013-03-21 22:54:00,
2013-03-21 16:59:00,46.7,16.1,29.74,WNW,300,2.0,2.0,29,0.00,,,0.00,Wunderground v.1.15,2013-03-21 22:59:00,
2013-03-21 17:09:00,46.3,17.3,29.74,East,89,0.0,5.0,31,0.00,,,0.00,Wunderground v.1.15,2013-03-21 23:09:00,
2013-03-21 17:14:00,46.0,14.7,29.73,East,92,1.0,5.0,28,0.00,,,0.00,Wunderground v.1.15,2013-03-21 23:14:00,
2013-03-21 17:24:00,45.8,14.5,29.74,SW,229,1.0,5.0,28,0.00,,,0.00,Wunderground v.1.15,2013-03-21 23:24:00,
2013-03-21 17:29:00,45.8,15.3,29.74,East,84,1.0,5.0,29,0.00,,,0.00,Wunderground v.1.15,2013-03-21 23:29:00,
2013-03-21 17:39:00,45.4,15.7,29.74,NNE,24,1.0,1.0,30,0.00,,,0.00,Wunderground v.1.15,2013-03-21 23:39:00,
2013-03-21 17:44:00,45.0,18.3,29.75,West,280,1.0,5.0,34,0.00,,,0.00,Wunderground v.1.15,2013-03-21 23:44:00,
2013-03-21 17:54:00,44.7,18.0,29.75,South,191,1.0,5.0,34,0.00,,,0.00,Wunderground v.1.15,2013-03-21 23:54:00,
2013-03-21 18:05:00,44.2,17.6,29.76,WSW,238,1.0,5.0,34,0.00,,,0.00,Wunderground v.1.15,2013-03-22 00:05:00,
2013-03-21 18:09:00,43.6,17.7,29.77,WSW,238,1.0,5.0,35,0.00,,,0.00,Wunderground v.1.15,2013-03-22 00:09:00,
2013-03-21 18:15:00,43.2,15.3,29.77,SW,233,1.0,5.0,32,0.00,,,0.00,Wunderground v.1.15,2013-03-22 00:15:00,
2013-03-21 18:24:00,42.4,19.2,29.77,SW,233,0.0,4.0,39,0.00,,,0.00,Wunderground v.1.15,2013-03-22 00:24:00,
2013-03-21 18:29:00,41.9,17.5,29.77,SW,233,0.0,4.0,37,0.00,,,0.00,Wunderground v.1.15,2013-03-22 00:29:00,
2013-03-21 18:39:00,41.5,17.1,29.77,SW,233,1.0,1.0,37,0.00,,,0.00,Wunderground v.1.15,2013-03-22 00:39:00,
2013-03-21 18:44:00,41.1,14.8,29.78,SW,229,1.0,4.0,34,0.00,,,0.00,Wunderground v.1.15,2013-03-22 00:44:00,
2013-03-21 18:54:00,40.9,14.0,29.79,SW,229,1.0,4.0,33,0.00,,,0.00,Wunderground v.1.15,2013-03-22 00:54:00,
2013-03-21 19:04:00,40.1,16.5,29.79,SW,229,0.0,4.0,38,0.00,,,0.00,Wunderground v.1.15,2013-03-22 01:04:00,
2013-03-21 19:14:00,39.1,15.6,29.80,SW,229,0.0,4.0,38,0.00,,,0.00,Wunderground v.1.15,2013-03-22 01:14:00,
2013-03-21 19:24:00,38.8,12.8,29.81,SW,229,0.0,3.0,34,0.00,,,0.00,Wunderground v.1.15,2013-03-22 01:24:00,
2013-03-21 19:34:00,39.7,13.6,29.81,South,188,1.0,3.0,34,0.00,,,0.00,Wunderground v.1.15,2013-03-22 01:34:00,
2013-03-21 19:39:00,39.7,14.9,29.81,South,175,1.0,1.0,36,0.00,,,0.00,Wunderground v.1.15,2013-03-22 01:39:00,
2013-03-21 19:49:00,39.0,14.3,29.82,South,175,0.0,3.0,36,0.00,,,0.00,Wunderground v.1.15,2013-03-22 01:49:00,
2013-03-21 19:54:00,38.6,12.6,29.82,South,175,0.0,3.0,34,0.00,,,0.00,Wunderground v.1.15,2013-03-22 01:54:00,
2013-03-21 20:04:00,37.6,16.0,29.82,South,175,0.0,3.0,41,0.00,,,0.00,Wunderground v.1.15,2013-03-22 02:04:00,
2013-03-21 20:15:00,36.2,13.6,29.82,South,175,0.0,3.0,39,0.00,,,0.00,Wunderground v.1.15,2013-03-22 02:15:00,
2013-03-21 20:24:00,35.0,16.8,29.83,South,175,0.0,1.0,47,0.00,,,0.00,Wunderground v.1.15,2013-03-22 02:24:00,
2013-03-21 20:34:00,34.1,15.9,29.83,South,175,0.0,1.0,47,0.00,,,0.00,Wunderground v.1.15,2013-03-22 02:34:00,
2013-03-21 20:44:00,33.0,17.3,29.84,South,175,0.0,1.0,52,0.00,,,0.00,Wunderground v.1.15,2013-03-22 02:44:00,
2013-03-21 20:54:00,31.7,16.5,29.83,South,175,0.0,1.0,53,0.00,,,0.00,Wunderground v.1.15,2013-03-22 02:54:00,
2013-03-21 21:04:00,30.9,16.2,29.84,South,175,0.0,1.0,54,0.00,,,0.00,Wunderground v.1.15,2013-03-22 03:04:00,
2013-03-21 21:14:00,29.9,15.7,29.84,South,175,0.0,1.0,55,0.00,,,0.00,Wunderground v.1.15,2013-03-22 03:14:00,
2013-03-21 21:24:00,29.0,16.4,29.84,South,175,0.0,1.0,59,0.00,,,0.00,Wunderground v.1.15,2013-03-22 03:24:00,
2013-03-21 21:29:00,28.6,15.7,29.84,South,175,0.0,1.0,58,0.00,,,0.00,Wunderground v.1.15,2013-03-22 03:29:00,
2013-03-21 21:39:00,27.8,15.3,29.84,SE,146,1.0,1.0,59,0.00,,,0.00,Wunderground v.1.15,2013-03-22 03:39:00,
2013-03-21 21:49:00,27.4,16.4,29.84,SE,146,0.0,1.0,63,0.00,,,0.00,Wunderground v.1.15,2013-03-22 03:49:00,
2013-03-21 21:54:00,27.2,15.5,29.84,SE,146,0.0,1.0,61,0.00,,,0.00,Wunderground v.1.15,2013-03-22 03:54:00,
2013-03-21 21:59:00,27.0,15.7,29.84,SE,146,0.0,1.0,62,0.00,,,0.00,Wunderground v.1.15,2013-03-22 03:59:00,
2013-03-21 22:04:00,26.9,16.0,29.84,SE,146,0.0,1.0,63,0.00,,,0.00,Wunderground v.1.15,2013-03-22 04:04:00,
2013-03-21 22:09:00,26.8,15.5,29.84,SE,146,0.0,1.0,62,0.00,,,0.00,Wunderground v.1.15,2013-03-22 04:09:00,
2013-03-21 22:14:00,26.7,15.0,29.84,SE,146,0.0,2.0,61,0.00,,,0.00,Wunderground v.1.15,2013-03-22 04:14:00,
2013-03-21 22:19:00,26.7,16.1,29.84,SE,146,0.0,2.0,64,0.00,,,0.00,Wunderground v.1.15,2013-03-22 04:19:00,
2013-03-21 22:24:00,26.6,15.3,29.84,SE,146,0.0,2.0,62,0.00,,,0.00,Wunderground v.1.15,2013-03-22 04:24:00,
2013-03-21 22:29:00,26.5,16.0,29.84,SE,146,0.0,2.0,64,0.00,,,0.00,Wunderground v.1.15,2013-03-22 04:29:00,
2013-03-21 22:39:00,26.5,16.7,29.85,SE,146,0.0,3.0,66,0.00,,,0.00,Wunderground v.1.15,2013-03-22 04:39:00,
2013-03-21 22:44:00,26.4,16.2,29.85,SE,142,1.0,3.0,65,0.00,,,0.00,Wunderground v.1.15,2013-03-22 04:44:00,
2013-03-21 22:54:00,26.3,15.4,29.85,SE,142,0.0,2.0,63,0.00,,,0.00,Wunderground v.1.15,2013-03-22 04:54:00,
2013-03-21 22:59:00,26.2,16.0,29.85,SE,142,0.0,2.0,65,0.00,,,0.00,Wunderground v.1.15,2013-03-22 04:59:00,
2013-03-21 23:04:00,26.2,15.7,29.85,SE,142,0.0,2.0,64,0.00,,,0.00,Wunderground v.1.15,2013-03-22 05:04:00,
2013-03-21 23:09:00,26.2,16.0,29.85,SE,142,0.0,2.0,65,0.00,,,0.00,Wunderground v.1.15,2013-03-22 05:09:00,
2013-03-21 23:14:00,26.1,15.9,29.85,SE,142,0.0,2.0,65,0.00,,,0.00,Wunderground v.1.15,2013-03-22 05:14:00,
2013-03-21 23:24:00,25.8,14.9,29.85,SE,142,0.0,2.0,63,0.00,,,0.00,Wunderground v.1.15,2013-03-22 05:24:00,
2013-03-21 23:29:00,25.8,15.6,29.85,SE,142,0.0,2.0,65,0.00,,,0.00,Wunderground v.1.15,2013-03-22 05:29:00,
2013-03-21 23:39:00,25.6,15.8,29.85,SE,142,0.0,2.0,66,0.00,,,0.00,Wunderground v.1.15,2013-03-22 05:39:00,
2013-03-21 23:49:00,25.3,14.5,29.86,SE,142,0.0,2.0,63,0.00,,,0.00,Wunderground v.1.15,2013-03-22 05:49:00,
2013-03-21 23:59:00,24.9,15.1,29.86,SSW,192,0.0,2.0,66,0.00,,,0.00,Wunderground v.1.15,2013-03-22 05:59:00,